Amistad, New Mexico
Current Conditions -  °F | °C
As of 5:53 PM on Friday 24 Oct 2014 (Local Time) from KDHT Reporting Station
Clear Clear  
Wind Chill: 76°   Ceiling: Unl
Heat Index: 76°   Visibility: 10mi
Dew Point: 37°   Wind: 7mph
Humidity: 24%   Direction: 170°S
Pressure: 30.12"   Gusts: NA
Location:  35.92°N, 103.16°W
Report Text: KDHT 242353Z AUTO 17006KT 10SM CLR 24/03 A3012 RMK AO2 SLP159 T02440028 10306 20244 53002
Loading
Personal Weather Stations






























Interactive Weather Map
Tropical Storm Tracking
New forecast layout! Learn more

10-Day Weather Forecast

Advertisements
Track Severe Weather on mobile